Hauptseite
METAR-TAF:

METAR-TAF

Flughäfen :

Flughafen Bremen

Bremen, Deutschland

Breite: 53-03N, Länge: 008-48E, Höhe: 3 m

Beobachtung

Neuester Wetterbericht von vor 36 Minuten, um 03:50 UTC
Wind 3 kt aus Süd/Südost
Temperatur -8°C
Luftfeuchtigkeit 100%
Luftdruck 1022 hPa
Sichtweite: 3500 m
feuchter Dunst

METAR: EDDW 210350Z 15003KT 3500 BR NSC M08/M08 Q1022

Zeit: 05:26 (04:26 UTC)

Prognose

Neuester Wetterbericht von vor 5 Stunden und 26 Minuten, um 23:00 UTC
Gültige Prognose vom 21 um 00 UTC bis 21 um 24 UTC
Wind 2 kt aus unterschiedlichen Richtungen
Sichtweite 10 km oder mehr
keine Wolken unter 1500 m und keine Kumulonimbus oder Gewitterwolken
Wahrscheinlichkeit 30% :
Zeitweise
vom 21 um 00 UTC bis 21 um 07 UTC
Sichtweite: 2000 m
Nebelschwaden
Übergehend zu
vom 21 um 05 UTC bis 21 um 07 UTC
Wind 7 kt aus Südwest

TAF: EDDW 202300Z 2100/2124 VRB02KT CAVOK PROB30 TEMPO 2100/2107 2000 BCFG BECMG 2105/2107 22007KT

Wetterbeobachtungen und Prognosen von mehr als 4000 Flughäfen (METAR und TAF Bericht).

Die verfügbaren Stationen werden durch gelbe und rote Markierungen auf der Karte dargestellt.

Führen Sie die Maus auf sie, um den Namen der Station zu sehen.

Darauf klicken, um die Beobachtung von Wetterbeobachtungen und Prognosen zu sehen.

Um die Karte zu ändern : klicken Sie auf den grünen Tasten mit einem schwarzen Kreuz Zum Vergrößern, auf den grünen Button mit einem Gedankenstrich zu verkleinern, oder auf die grünen Pfeile für benachbarte Karten.


METAR-TAF: